sensor_id;sensor_type;location;lat;lon;timestamp;pressure;altitude;pressure_sealevel;temperature;humidity
80566;BME280;69915;54.862;10.730;2023-05-10T00:00:00;100936.00;;;11.41;62.96
80566;BME280;69915;54.862;10.730;2023-05-10T00:02:25;100937.53;;;11.28;63.68
80566;BME280;69915;54.862;10.730;2023-05-10T00:04:51;100951.22;;;11.28;64.62
80566;BME280;69915;54.862;10.730;2023-05-10T00:07:17;100945.47;;;11.30;63.79
80566;BME280;69915;54.862;10.730;2023-05-10T00:09:43;100951.75;;;11.30;63.72
80566;BME280;69915;54.862;10.730;2023-05-10T00:12:09;100944.38;;;11.31;64.06
80566;BME280;69915;54.862;10.730;2023-05-10T00:14:34;100940.22;;;11.33;63.85
80566;BME280;69915;54.862;10.730;2023-05-10T00:17:00;100938.59;;;11.32;63.47
80566;BME280;69915;54.862;10.730;2023-05-10T00:19:25;100936.44;;;11.29;63.75
80566;BME280;69915;54.862;10.730;2023-05-10T00:21:51;100919.84;;;11.21;63.56
80566;BME280;69915;54.862;10.730;2023-05-10T00:24:16;100920.91;;;11.25;63.50
80566;BME280;69915;54.862;10.730;2023-05-10T00:26:42;100935.94;;;11.27;63.68
80566;BME280;69915;54.862;10.730;2023-05-10T00:29:07;100927.31;;;11.15;64.31
80566;BME280;69915;54.862;10.730;2023-05-10T00:31:33;100919.78;;;11.26;63.04
80566;BME280;69915;54.862;10.730;2023-05-10T00:33:58;100917.19;;;11.16;63.29
80566;BME280;69915;54.862;10.730;2023-05-10T00:36:24;100904.34;;;11.35;62.52
80566;BME280;69915;54.862;10.730;2023-05-10T00:38:49;100904.09;;;11.31;63.01
80566;BME280;69915;54.862;10.730;2023-05-10T00:41:15;100907.38;;;11.33;62.60
80566;BME280;69915;54.862;10.730;2023-05-10T00:43:41;100905.94;;;11.17;63.29
80566;BME280;69915;54.862;10.730;2023-05-10T00:46:07;100917.41;;;11.19;63.69
80566;BME280;69915;54.862;10.730;2023-05-10T00:48:33;100904.84;;;11.18;63.85
80566;BME280;69915;54.862;10.730;2023-05-10T00:50:59;100899.22;;;11.28;63.26
80566;BME280;69915;54.862;10.730;2023-05-10T00:53:24;100912.63;;;11.30;62.95
80566;BME280;69915;54.862;10.730;2023-05-10T00:55:50;100900.84;;;11.29;63.67
80566;BME280;69915;54.862;10.730;2023-05-10T00:58:16;100897.16;;;11.20;63.24
80566;BME280;69915;54.862;10.730;2023-05-10T01:00:42;100909.16;;;11.24;63.21
80566;BME280;69915;54.862;10.730;2023-05-10T01:03:10;100895.97;;;11.26;63.17
80566;BME280;69915;54.862;10.730;2023-05-10T01:05:36;100896.78;;;11.27;63.09
80566;BME280;69915;54.862;10.730;2023-05-10T01:08:02;100892.19;;;11.22;63.21
80566;BME280;69915;54.862;10.730;2023-05-10T01:10:28;100890.84;;;11.20;62.58
80566;BME280;69915;54.862;10.730;2023-05-10T01:12:53;100885.53;;;11.10;63.48
80566;BME280;69915;54.862;10.730;2023-05-10T01:15:20;100874.75;;;11.18;63.21
80566;BME280;69915;54.862;10.730;2023-05-10T01:17:47;100897.31;;;11.29;62.83
80566;BME280;69915;54.862;10.730;2023-05-10T01:20:14;100878.00;;;11.20;63.03
80566;BME280;69915;54.862;10.730;2023-05-10T01:33:13;100864.44;;;11.10;62.58
80566;BME280;69915;54.862;10.730;2023-05-10T01:35:51;100871.06;;;11.04;62.88
80566;BME280;69915;54.862;10.730;2023-05-10T01:38:40;100877.00;;;11.11;62.56
80566;BME280;69915;54.862;10.730;2023-05-10T01:46:39;100861.75;;;11.05;62.32
80566;BME280;69915;54.862;10.730;2023-05-10T01:49:11;100856.75;;;11.12;62.09
80566;BME280;69915;54.862;10.730;2023-05-10T01:51:45;100858.59;;;11.17;61.79
80566;BME280;69915;54.862;10.730;2023-05-10T01:54:13;100869.31;;;11.13;61.99
80566;BME280;69915;54.862;10.730;2023-05-10T01:56:40;100855.03;;;10.98;62.76
80566;BME280;69915;54.862;10.730;2023-05-10T01:59:12;100860.44;;;11.03;62.30
80566;BME280;69915;54.862;10.730;2023-05-10T02:01:39;100856.13;;;10.97;62.80
80566;BME280;69915;54.862;10.730;2023-05-10T02:04:07;100855.25;;;11.01;62.67
80566;BME280;69915;54.862;10.730;2023-05-10T02:06:34;100869.56;;;10.93;63.03
80566;BME280;69915;54.862;10.730;2023-05-10T02:09:01;100868.16;;;10.96;63.52
80566;BME280;69915;54.862;10.730;2023-05-10T02:11:27;100886.56;;;10.90;63.46
80566;BME280;69915;54.862;10.730;2023-05-10T02:13:55;100878.38;;;10.90;63.02
80566;BME280;69915;54.862;10.730;2023-05-10T02:16:25;100865.16;;;10.97;62.61
80566;BME280;69915;54.862;10.730;2023-05-10T02:18:52;100866.38;;;10.86;63.52
80566;BME280;69915;54.862;10.730;2023-05-10T02:21:19;100866.31;;;10.91;62.95
80566;BME280;69915;54.862;10.730;2023-05-10T02:23:46;100866.31;;;10.91;62.83
80566;BME280;69915;54.862;10.730;2023-05-10T02:26:14;100872.66;;;10.86;62.73
80566;BME280;69915;54.862;10.730;2023-05-10T02:28:42;100867.34;;;10.95;62.11
80566;BME280;69915;54.862;10.730;2023-05-10T02:31:07;100865.75;;;10.94;62.59
80566;BME280;69915;54.862;10.730;2023-05-10T02:33:38;100864.44;;;10.86;62.29
80566;BME280;69915;54.862;10.730;2023-05-10T02:36:05;100870.03;;;11.00;61.86
80566;BME280;69915;54.862;10.730;2023-05-10T02:38:32;100846.81;;;10.98;61.76
80566;BME280;69915;54.862;10.730;2023-05-10T02:40:59;100855.53;;;11.00;62.31
80566;BME280;69915;54.862;10.730;2023-05-10T02:43:25;100851.00;;;10.90;62.68
80566;BME280;69915;54.862;10.730;2023-05-10T02:45:51;100846.59;;;10.94;61.91
80566;BME280;69915;54.862;10.730;2023-05-10T02:48:16;100845.84;;;10.88;62.70
80566;BME280;69915;54.862;10.730;2023-05-10T02:50:44;100859.06;;;10.81;63.36
80566;BME280;69915;54.862;10.730;2023-05-10T02:53:13;100847.94;;;10.97;62.09
80566;BME280;69915;54.862;10.730;2023-05-10T02:55:40;100842.56;;;10.86;62.42
80566;BME280;69915;54.862;10.730;2023-05-10T02:58:08;100858.16;;;10.86;62.84
80566;BME280;69915;54.862;10.730;2023-05-10T03:00:34;100836.28;;;10.86;62.80
80566;BME280;69915;54.862;10.730;2023-05-10T03:03:00;100866.94;;;10.83;62.78
80566;BME280;69915;54.862;10.730;2023-05-10T03:05:26;100837.09;;;10.86;63.55
80566;BME280;69915;54.862;10.730;2023-05-10T03:07:52;100850.03;;;10.81;63.70
80566;BME280;69915;54.862;10.730;2023-05-10T03:10:18;100851.91;;;10.85;63.07
80566;BME280;69915;54.862;10.730;2023-05-10T03:15:56;100851.53;;;10.92;62.42
80566;BME280;69915;54.862;10.730;2023-05-10T03:18:29;100837.09;;;10.86;62.31
80566;BME280;69915;54.862;10.730;2023-05-10T03:21:03;100835.03;;;10.78;63.42
80566;BME280;69915;54.862;10.730;2023-05-10T03:23:46;100844.56;;;10.81;63.48
80566;BME280;69915;54.862;10.730;2023-05-10T03:26:18;100840.19;;;10.80;63.47
80566;BME280;69915;54.862;10.730;2023-05-10T03:28:47;100848.34;;;10.85;63.19
80566;BME280;69915;54.862;10.730;2023-05-10T03:31:13;100845.03;;;10.88;62.98
80566;BME280;69915;54.862;10.730;2023-05-10T03:33:50;100842.81;;;10.90;63.89
80566;BME280;69915;54.862;10.730;2023-05-10T03:36:15;100841.38;;;11.16;62.87
80566;BME280;69915;54.862;10.730;2023-05-10T03:38:41;100831.38;;;11.44;62.00
80566;BME280;69915;54.862;10.730;2023-05-10T03:41:07;100838.59;;;11.59;61.65
80566;BME280;69915;54.862;10.730;2023-05-10T03:43:32;100846.59;;;11.74;60.69
80566;BME280;69915;54.862;10.730;2023-05-10T03:45:57;100837.84;;;11.72;61.36
80566;BME280;69915;54.862;10.730;2023-05-10T03:48:23;100840.78;;;11.94;60.87
80566;BME280;69915;54.862;10.730;2023-05-10T03:50:48;100838.75;;;11.86;60.86
80566;BME280;69915;54.862;10.730;2023-05-10T03:53:15;100834.44;;;11.80;61.93
80566;BME280;69915;54.862;10.730;2023-05-10T03:55:40;100830.91;;;11.79;61.59
80566;BME280;69915;54.862;10.730;2023-05-10T03:58:06;100843.31;;;11.72;62.12
80566;BME280;69915;54.862;10.730;2023-05-10T04:00:32;100833.25;;;11.86;61.75
80566;BME280;69915;54.862;10.730;2023-05-10T04:02:58;100861.16;;;12.20;60.86
80566;BME280;69915;54.862;10.730;2023-05-10T04:05:23;100846.16;;;12.31;60.63
80566;BME280;69915;54.862;10.730;2023-05-10T04:07:49;100843.44;;;11.99;61.09
80566;BME280;69915;54.862;10.730;2023-05-10T04:10:15;100839.03;;;12.17;60.58
80566;BME280;69915;54.862;10.730;2023-05-10T04:12:41;100833.78;;;12.34;60.07
80566;BME280;69915;54.862;10.730;2023-05-10T04:15:07;100842.75;;;12.94;58.80
80566;BME280;69915;54.862;10.730;2023-05-10T04:17:33;100836.03;;;13.00;58.70
80566;BME280;69915;54.862;10.730;2023-05-10T04:19:58;100844.56;;;12.85;58.96
80566;BME280;69915;54.862;10.730;2023-05-10T04:22:24;100823.78;;;13.11;58.61
80566;BME280;69915;54.862;10.730;2023-05-10T04:24:49;100828.13;;;12.85;59.32
80566;BME280;69915;54.862;10.730;2023-05-10T04:27:14;100830.03;;;12.57;60.26
80566;BME280;69915;54.862;10.730;2023-05-10T04:29:40;100828.13;;;13.12;58.75
80566;BME280;69915;54.862;10.730;2023-05-10T04:32:06;100821.16;;;13.42;57.67
80566;BME280;69915;54.862;10.730;2023-05-10T04:34:32;100833.25;;;13.99;56.27
80566;BME280;69915;54.862;10.730;2023-05-10T04:36:59;100831.06;;;14.09;56.66
80566;BME280;69915;54.862;10.730;2023-05-10T04:39:24;100808.72;;;14.73;54.05
80566;BME280;69915;54.862;10.730;2023-05-10T04:41:50;100819.84;;;14.59;54.01
80566;BME280;69915;54.862;10.730;2023-05-10T04:44:15;100830.31;;;14.48;54.71
80566;BME280;69915;54.862;10.730;2023-05-10T04:46:41;100822.25;;;13.99;55.63
80566;BME280;69915;54.862;10.730;2023-05-10T04:49:06;100831.69;;;14.06;56.08
80566;BME280;69915;54.862;10.730;2023-05-10T04:51:32;100826.91;;;13.76;56.35
80566;BME280;69915;54.862;10.730;2023-05-10T04:53:57;100842.56;;;14.34;55.42
80566;BME280;69915;54.862;10.730;2023-05-10T04:56:23;100820.09;;;14.80;54.54
80566;BME280;69915;54.862;10.730;2023-05-10T04:58:48;100831.97;;;14.49;54.67
80566;BME280;69915;54.862;10.730;2023-05-10T05:01:14;100844.09;;;14.26;55.19
80566;BME280;69915;54.862;10.730;2023-05-10T05:03:40;100837.50;;;14.58;54.37
80566;BME280;69915;54.862;10.730;2023-05-10T05:06:05;100840.97;;;14.19;55.56
80566;BME280;69915;54.862;10.730;2023-05-10T05:08:31;100834.81;;;14.22;55.96
80566;BME280;69915;54.862;10.730;2023-05-10T05:10:56;100818.91;;;15.29;52.60
80566;BME280;69915;54.862;10.730;2023-05-10T05:13:22;100829.03;;;14.01;55.48
80566;BME280;69915;54.862;10.730;2023-05-10T05:15:47;100837.09;;;14.82;53.52
80566;BME280;69915;54.862;10.730;2023-05-10T05:18:13;100814.19;;;15.29;52.92
80566;BME280;69915;54.862;10.730;2023-05-10T05:20:38;100819.31;;;14.96;53.01
80566;BME280;69915;54.862;10.730;2023-05-10T05:23:03;100820.38;;;14.69;54.66
80566;BME280;69915;54.862;10.730;2023-05-10T05:25:29;100817.25;;;14.32;55.14
80566;BME280;69915;54.862;10.730;2023-05-10T05:27:54;100822.34;;;14.38;55.03
80566;BME280;69915;54.862;10.730;2023-05-10T05:30:20;100809.59;;;14.99;53.37
80566;BME280;69915;54.862;10.730;2023-05-10T05:32:45;100795.25;;;15.19;53.27
80566;BME280;69915;54.862;10.730;2023-05-10T05:35:12;100811.31;;;15.34;53.00
80566;BME280;69915;54.862;10.730;2023-05-10T05:37:37;100812.53;;;15.11;53.44
80566;BME280;69915;54.862;10.730;2023-05-10T05:40:03;100833.25;;;14.52;54.65
80566;BME280;69915;54.862;10.730;2023-05-10T05:42:30;100831.59;;;14.20;55.41
80566;BME280;69915;54.862;10.730;2023-05-10T05:44:56;100828.22;;;14.45;54.13
80566;BME280;69915;54.862;10.730;2023-05-10T05:47:21;100823.38;;;14.99;53.61
80566;BME280;69915;54.862;10.730;2023-05-10T05:49:47;100815.19;;;16.02;51.75
80566;BME280;69915;54.862;10.730;2023-05-10T05:52:12;100815.34;;;16.14;51.13
80566;BME280;69915;54.862;10.730;2023-05-10T05:54:39;100829.34;;;17.22;48.87
80566;BME280;69915;54.862;10.730;2023-05-10T05:57:04;100812.84;;;17.34;48.49
80566;BME280;69915;54.862;10.730;2023-05-10T05:59:30;100819.59;;;16.66;49.28
80566;BME280;69915;54.862;10.730;2023-05-10T06:01:55;100831.44;;;15.77;51.09
80566;BME280;69915;54.862;10.730;2023-05-10T06:04:21;100836.91;;;15.43;52.77
80566;BME280;69915;54.862;10.730;2023-05-10T06:06:46;100829.97;;;14.81;53.83
80566;BME280;69915;54.862;10.730;2023-05-10T06:09:12;100845.19;;;14.87;54.80
80566;BME280;69915;54.862;10.730;2023-05-10T06:11:37;100873.50;;;14.79;56.17
80566;BME280;69915;54.862;10.730;2023-05-10T06:14:03;100840.88;;;14.55;55.30
80566;BME280;69915;54.862;10.730;2023-05-10T06:16:30;100847.03;;;15.00;53.61
80566;BME280;69915;54.862;10.730;2023-05-10T06:18:55;100864.34;;;14.30;55.92
80566;BME280;69915;54.862;10.730;2023-05-10T06:21:21;100863.53;;;14.30;55.68
80566;BME280;69915;54.862;10.730;2023-05-10T06:23:47;100858.25;;;14.33;56.05
80566;BME280;69915;54.862;10.730;2023-05-10T06:26:12;100845.56;;;14.32;55.84
80566;BME280;69915;54.862;10.730;2023-05-10T06:28:39;100851.41;;;14.31;54.88
80566;BME280;69915;54.862;10.730;2023-05-10T06:31:05;100879.41;;;14.10;57.29
80566;BME280;69915;54.862;10.730;2023-05-10T06:33:31;100850.72;;;13.81;57.95
80566;BME280;69915;54.862;10.730;2023-05-10T06:35:57;100846.34;;;13.57;57.36
80566;BME280;69915;54.862;10.730;2023-05-10T06:38:22;100851.47;;;13.95;56.64
80566;BME280;69915;54.862;10.730;2023-05-10T06:40:48;100852.03;;;14.05;56.58
80566;BME280;69915;54.862;10.730;2023-05-10T06:43:20;100856.47;;;14.15;56.59
80566;BME280;69915;54.862;10.730;2023-05-10T06:45:45;100852.59;;;14.38;55.38
80566;BME280;69915;54.862;10.730;2023-05-10T06:48:11;100856.47;;;14.15;56.09
80566;BME280;69915;54.862;10.730;2023-05-10T06:50:36;100844.91;;;14.04;56.10
80566;BME280;69915;54.862;10.730;2023-05-10T06:53:02;100846.78;;;13.95;55.66
80566;BME280;69915;54.862;10.730;2023-05-10T06:55:27;100844.09;;;14.04;57.05
80566;BME280;69915;54.862;10.730;2023-05-10T06:57:53;100848.19;;;13.84;56.54
80566;BME280;69915;54.862;10.730;2023-05-10T07:00:19;100847.81;;;13.41;57.56
80566;BME280;69915;54.862;10.730;2023-05-10T07:02:44;100852.34;;;14.26;56.47
80566;BME280;69915;54.862;10.730;2023-05-10T07:05:10;100869.03;;;14.30;56.36
80566;BME280;69915;54.862;10.730;2023-05-10T07:07:35;100836.53;;;14.62;55.31
80566;BME280;69915;54.862;10.730;2023-05-10T07:10:01;100834.50;;;14.77;54.91
80566;BME280;69915;54.862;10.730;2023-05-10T07:12:27;100854.22;;;14.39;55.04
80566;BME280;69915;54.862;10.730;2023-05-10T07:14:53;100817.25;;;13.79;57.00
80566;BME280;69915;54.862;10.730;2023-05-10T07:17:18;100847.09;;;14.16;56.05
80566;BME280;69915;54.862;10.730;2023-05-10T07:19:44;100869.41;;;14.14;56.08
80566;BME280;69915;54.862;10.730;2023-05-10T07:22:09;100829.13;;;13.88;57.05
80566;BME280;69915;54.862;10.730;2023-05-10T07:24:35;100855.16;;;13.68;58.72
80566;BME280;69915;54.862;10.730;2023-05-10T07:27:00;100848.00;;;14.03;57.48
80566;BME280;69915;54.862;10.730;2023-05-10T07:29:26;100822.56;;;14.50;56.11
80566;BME280;69915;54.862;10.730;2023-05-10T07:31:51;100858.47;;;14.01;56.42
80566;BME280;69915;54.862;10.730;2023-05-10T07:34:17;100819.41;;;14.74;55.57
80566;BME280;69915;54.862;10.730;2023-05-10T07:36:42;100830.81;;;14.90;54.07
80566;BME280;69915;54.862;10.730;2023-05-10T07:39:08;100835.66;;;14.93;53.65
80566;BME280;69915;54.862;10.730;2023-05-10T07:41:33;100822.78;;;14.62;55.68
80566;BME280;69915;54.862;10.730;2023-05-10T07:43:59;100856.16;;;14.16;56.14
80566;BME280;69915;54.862;10.730;2023-05-10T07:46:24;100836.00;;;13.99;55.94
80566;BME280;69915;54.862;10.730;2023-05-10T07:48:49;100821.63;;;13.80;56.67
80566;BME280;69915;54.862;10.730;2023-05-10T07:51:15;100827.38;;;13.70;56.89
80566;BME280;69915;54.862;10.730;2023-05-10T07:53:43;100834.91;;;14.08;56.95
80566;BME280;69915;54.862;10.730;2023-05-10T07:59:25;100813.75;;;14.70;54.70
80566;BME280;69915;54.862;10.730;2023-05-10T08:07:55;100835.91;;;15.22;53.46
80566;BME280;69915;54.862;10.730;2023-05-10T08:10:20;100820.31;;;15.09;53.81
80566;BME280;69915;54.862;10.730;2023-05-10T08:12:46;100838.50;;;15.44;53.68
80566;BME280;69915;54.862;10.730;2023-05-10T08:15:11;100828.94;;;15.33;52.10
80566;BME280;69915;54.862;10.730;2023-05-10T08:17:37;100832.56;;;15.51;52.21
80566;BME280;69915;54.862;10.730;2023-05-10T08:20:02;100830.28;;;15.87;52.25
80566;BME280;69915;54.862;10.730;2023-05-10T08:22:28;100835.16;;;15.64;51.99
80566;BME280;69915;54.862;10.730;2023-05-10T08:24:53;100834.94;;;15.18;52.93
80566;BME280;69915;54.862;10.730;2023-05-10T08:27:19;100851.63;;;15.21;51.15
80566;BME280;69915;54.862;10.730;2023-05-10T08:29:44;100839.16;;;15.33;52.49
80566;BME280;69915;54.862;10.730;2023-05-10T08:32:09;100828.34;;;16.51;50.71
80566;BME280;69915;54.862;10.730;2023-05-10T08:34:35;100835.16;;;15.99;51.48
80566;BME280;69915;54.862;10.730;2023-05-10T08:37:01;100822.50;;;16.99;50.39
80566;BME280;69915;54.862;10.730;2023-05-10T08:39:26;100837.59;;;15.92;50.19
80566;BME280;69915;54.862;10.730;2023-05-10T08:41:54;100848.78;;;15.52;50.05
80566;BME280;69915;54.862;10.730;2023-05-10T08:44:23;100831.44;;;15.60;51.37
80566;BME280;69915;54.862;10.730;2023-05-10T08:46:53;100841.00;;;15.63;51.38
80566;BME280;69915;54.862;10.730;2023-05-10T08:49:20;100839.66;;;16.20;51.19
80566;BME280;69915;54.862;10.730;2023-05-10T08:51:54;100834.25;;;16.41;50.08
80566;BME280;69915;54.862;10.730;2023-05-10T08:54:21;100846.66;;;16.73;49.50
80566;BME280;69915;54.862;10.730;2023-05-10T08:56:47;100834.69;;;16.98;48.46
80566;BME280;69915;54.862;10.730;2023-05-10T08:59:13;100854.72;;;16.86;48.58
80566;BME280;69915;54.862;10.730;2023-05-10T09:01:40;100864.84;;;17.12;49.32
80566;BME280;69915;54.862;10.730;2023-05-10T09:04:07;100867.47;;;18.00;47.99
80566;BME280;69915;54.862;10.730;2023-05-10T09:06:33;100865.16;;;16.81;50.11
80566;BME280;69915;54.862;10.730;2023-05-10T09:08:59;100869.59;;;17.32;47.30
80566;BME280;69915;54.862;10.730;2023-05-10T09:11:25;100869.84;;;16.80;50.77
80566;BME280;69915;54.862;10.730;2023-05-10T09:13:54;100893.38;;;15.71;50.57
80566;BME280;69915;54.862;10.730;2023-05-10T09:16:20;100872.97;;;15.90;52.46
80566;BME280;69915;54.862;10.730;2023-05-10T09:18:46;100889.66;;;16.10;50.74
80566;BME280;69915;54.862;10.730;2023-05-10T09:21:12;100850.34;;;15.27;50.94
80566;BME280;69915;54.862;10.730;2023-05-10T09:23:37;100890.47;;;15.68;51.81
80566;BME280;69915;54.862;10.730;2023-05-10T09:26:06;100872.97;;;15.90;52.04
80566;BME280;69915;54.862;10.730;2023-05-10T09:28:57;100881.53;;;15.97;51.03
80566;BME280;69915;54.862;10.730;2023-05-10T09:31:23;100873.94;;;15.59;51.45
80566;BME280;69915;54.862;10.730;2023-05-10T09:33:50;100879.78;;;15.84;51.14
80566;BME280;69915;54.862;10.730;2023-05-10T09:36:16;100863.13;;;16.44;52.21
80566;BME280;69915;54.862;10.730;2023-05-10T09:38:46;100876.81;;;16.86;50.98
80566;BME280;69915;54.862;10.730;2023-05-10T09:41:20;100875.19;;;16.22;51.56
80566;BME280;69915;54.862;10.730;2023-05-10T09:43:45;100873.88;;;16.28;50.10
80566;BME280;69915;54.862;10.730;2023-05-10T09:46:11;100884.78;;;16.16;49.52
80566;BME280;69915;54.862;10.730;2023-05-10T09:48:42;100868.69;;;16.18;51.53
80566;BME280;69915;54.862;10.730;2023-05-10T09:51:08;100898.41;;;16.29;49.38
80566;BME280;69915;54.862;10.730;2023-05-10T09:53:34;100870.63;;;16.90;49.89
80566;BME280;69915;54.862;10.730;2023-05-10T09:55:59;100869.69;;;17.15;50.94
80566;BME280;69915;54.862;10.730;2023-05-10T09:58:24;100868.94;;;17.64;48.93
80566;BME280;69915;54.862;10.730;2023-05-10T10:00:50;100872.91;;;17.55;49.92
80566;BME280;69915;54.862;10.730;2023-05-10T10:03:22;100883.44;;;18.15;49.01
80566;BME280;69915;54.862;10.730;2023-05-10T10:05:48;100867.38;;;18.41;47.22
80566;BME280;69915;54.862;10.730;2023-05-10T10:08:14;100873.78;;;17.67;49.11
80566;BME280;69915;54.862;10.730;2023-05-10T10:10:40;100877.22;;;18.18;47.77
80566;BME280;69915;54.862;10.730;2023-05-10T10:13:08;100869.00;;;17.47;46.91
80566;BME280;69915;54.862;10.730;2023-05-10T10:15:34;100874.34;;;18.14;48.66
80566;BME280;69915;54.862;10.730;2023-05-10T10:18:00;100859.25;;;18.24;49.12
80566;BME280;69915;54.862;10.730;2023-05-10T10:20:26;100882.19;;;17.91;46.90
80566;BME280;69915;54.862;10.730;2023-05-10T10:22:52;100866.09;;;17.43;50.86
80566;BME280;69915;54.862;10.730;2023-05-10T10:25:19;100862.94;;;18.16;48.47
80566;BME280;69915;54.862;10.730;2023-05-10T10:30:44;100870.03;;;18.05;48.05
80566;BME280;69915;54.862;10.730;2023-05-10T10:33:39;100866.13;;;18.06;46.26
80566;BME280;69915;54.862;10.730;2023-05-10T10:36:06;100869.34;;;18.73;47.46
80566;BME280;69915;54.862;10.730;2023-05-10T10:38:56;100865.34;;;18.50;47.73
80566;BME280;69915;54.862;10.730;2023-05-10T10:41:34;100875.13;;;18.80;46.69
80566;BME280;69915;54.862;10.730;2023-05-10T10:52:39;100868.66;;;18.11;46.80
80566;BME280;69915;54.862;10.730;2023-05-10T11:00:31;100866.53;;;17.54;45.74
80566;BME280;69915;54.862;10.730;2023-05-10T11:03:10;100858.13;;;18.04;49.13
80566;BME280;69915;54.862;10.730;2023-05-10T11:05:42;100872.22;;;17.78;46.72
80566;BME280;69915;54.862;10.730;2023-05-10T11:08:26;100858.31;;;18.20;46.83
80566;BME280;69915;54.862;10.730;2023-05-10T11:13:45;100857.47;;;18.97;49.35
80566;BME280;69915;54.862;10.730;2023-05-10T11:16:13;100861.34;;;18.60;46.60
80566;BME280;69915;54.862;10.730;2023-05-10T11:18:39;100856.75;;;19.24;46.34
80566;BME280;69915;54.862;10.730;2023-05-10T11:21:08;100857.69;;;19.04;46.14
80566;BME280;69915;54.862;10.730;2023-05-10T11:23:51;100855.38;;;18.82;46.87
80566;BME280;69915;54.862;10.730;2023-05-10T11:26:17;100861.63;;;19.03;45.10
80566;BME280;69915;54.862;10.730;2023-05-10T11:31:09;100861.97;;;19.14;42.78
80566;BME280;69915;54.862;10.730;2023-05-10T11:33:51;100837.38;;;19.76;44.77
80566;BME280;69915;54.862;10.730;2023-05-10T11:36:18;100829.91;;;19.92;44.40
80566;BME280;69915;54.862;10.730;2023-05-10T11:38:45;100841.56;;;19.98;43.95
80566;BME280;69915;54.862;10.730;2023-05-10T11:41:11;100849.41;;;20.08;43.53
80566;BME280;69915;54.862;10.730;2023-05-10T11:43:39;100838.56;;;20.62;43.44
80566;BME280;69915;54.862;10.730;2023-05-10T11:46:10;100855.41;;;20.38;44.17
80566;BME280;69915;54.862;10.730;2023-05-10T11:48:36;100859.00;;;20.54;43.59
80566;BME280;69915;54.862;10.730;2023-05-10T11:51:03;100842.66;;;20.09;42.63
80566;BME280;69915;54.862;10.730;2023-05-10T11:53:32;100845.28;;;20.77;42.04
80566;BME280;69915;54.862;10.730;2023-05-10T11:56:09;100863.81;;;20.14;44.19
80566;BME280;69915;54.862;10.730;2023-05-10T11:58:37;100870.13;;;20.54;42.43
80566;BME280;69915;54.862;10.730;2023-05-10T12:01:04;100862.53;;;19.43;45.21
80566;BME280;69915;54.862;10.730;2023-05-10T12:03:30;100882.06;;;18.98;44.33
80566;BME280;69915;54.862;10.730;2023-05-10T12:05:56;100859.19;;;19.26;46.11
80566;BME280;69915;54.862;10.730;2023-05-10T12:08:25;100864.00;;;19.65;44.16
80566;BME280;69915;54.862;10.730;2023-05-10T12:10:51;100870.47;;;19.57;43.57
80566;BME280;69915;54.862;10.730;2023-05-10T12:13:19;100876.97;;;19.37;46.39
80566;BME280;69915;54.862;10.730;2023-05-10T12:15:45;100865.75;;;19.33;44.01
80566;BME280;69915;54.862;10.730;2023-05-10T12:18:12;100876.03;;;19.97;45.20
80566;BME280;69915;54.862;10.730;2023-05-10T12:20:38;100877.31;;;19.60;43.59
80566;BME280;69915;54.862;10.730;2023-05-10T12:23:04;100873.69;;;19.71;46.79
80566;BME280;69915;54.862;10.730;2023-05-10T12:25:35;100862.41;;;20.20;44.22
80566;BME280;69915;54.862;10.730;2023-05-10T12:28:06;100870.13;;;19.98;47.22
80566;BME280;69915;54.862;10.730;2023-05-10T12:30:33;100871.56;;;20.20;43.30
80566;BME280;69915;54.862;10.730;2023-05-10T12:33:01;100868.28;;;19.63;45.75
80566;BME280;69915;54.862;10.730;2023-05-10T12:35:31;100882.28;;;19.42;43.26
80566;BME280;69915;54.862;10.730;2023-05-10T12:37:57;100879.28;;;19.35;44.50
80566;BME280;69915;54.862;10.730;2023-05-10T12:40:22;100877.75;;;19.62;43.94
80566;BME280;69915;54.862;10.730;2023-05-10T12:42:48;100888.38;;;19.72;44.71
80566;BME280;69915;54.862;10.730;2023-05-10T12:45:13;100885.88;;;19.42;46.51
80566;BME280;69915;54.862;10.730;2023-05-10T12:47:39;100894.75;;;19.36;45.51
80566;BME280;69915;54.862;10.730;2023-05-10T12:50:05;100879.84;;;19.52;45.58
80566;BME280;69915;54.862;10.730;2023-05-10T12:52:31;100879.59;;;19.97;44.65
80566;BME280;69915;54.862;10.730;2023-05-10T12:55:00;100881.38;;;19.26;43.54
80566;BME280;69915;54.862;10.730;2023-05-10T12:57:26;100883.03;;;19.79;44.51
80566;BME280;69915;54.862;10.730;2023-05-10T12:59:52;100886.66;;;19.19;46.22
80566;BME280;69915;54.862;10.730;2023-05-10T13:02:17;100899.59;;;19.02;47.54
80566;BME280;69915;54.862;10.730;2023-05-10T13:04:44;100888.91;;;18.56;47.40
80566;BME280;69915;54.862;10.730;2023-05-10T13:07:10;100892.69;;;18.19;47.39
80566;BME280;69915;54.862;10.730;2023-05-10T13:09:35;100890.41;;;18.54;47.19
80566;BME280;69915;54.862;10.730;2023-05-10T13:12:01;100901.28;;;18.38;46.97
80566;BME280;69915;54.862;10.730;2023-05-10T13:14:27;100899.25;;;18.92;45.92
80566;BME280;69915;54.862;10.730;2023-05-10T13:16:53;100880.88;;;19.12;47.00
80566;BME280;69915;54.862;10.730;2023-05-10T13:19:19;100902.47;;;18.94;45.88
80566;BME280;69915;54.862;10.730;2023-05-10T13:21:45;100879.16;;;19.55;46.62
80566;BME280;69915;54.862;10.730;2023-05-10T13:24:11;100890.84;;;19.89;45.57
80566;BME280;69915;54.862;10.730;2023-05-10T13:26:39;100897.75;;;18.94;46.13
80566;BME280;69915;54.862;10.730;2023-05-10T13:29:14;100905.38;;;18.85;45.45